Time;durP1;ratioP1;P1;durP2;ratioP2;P2;SDS_P1;SDS_P2;PMS_P1;PMS_P2;Temp;Humidity;BMP_temperature;BMP_pressure;BME280_temperature;BME280_humidity;BME280_pressure;Samples;Min_cycle;Max_cycle;Signal;HPM_P1;HPM_P2
2024/04/15 00:01:48;;;;;;;9.30;6.80;;;;;;;13.58;100.00;98780.27;109445;1254;59780;-73
2024/04/15 00:04:15;;;;;;;9.60;6.50;;;;;;;13.55;100.00;98781.45;109452;1254;59994;-72
2024/04/15 00:06:41;;;;;;;9.40;6.50;;;;;;;13.52;100.00;98778.30;109497;1253;59875;-73
2024/04/15 00:09:07;;;;;;;11.10;6.70;;;;;;;13.50;100.00;98777.27;109442;1253;59810;-73
2024/04/15 00:11:33;;;;;;;11.00;6.60;;;;;;;13.46;100.00;98776.30;109496;1254;59852;-73
2024/04/15 00:14:00;;;;;;;9.50;6.70;;;;;;;13.41;100.00;98775.81;109506;1253;60038;-73
2024/04/15 00:16:26;;;;;;;9.50;6.70;;;;;;;13.36;100.00;98769.48;109520;1253;59769;-74
2024/04/15 00:18:53;;;;;;;8.70;7.30;;;;;;;13.31;100.00;98762.71;109466;1254;59851;-73
2024/04/15 00:21:19;;;;;;;9.30;6.40;;;;;;;13.27;100.00;98757.34;109510;1253;60237;-73
2024/04/15 00:23:45;;;;;;;7.70;6.80;;;;;;;13.22;100.00;98752.19;109498;1253;59855;-74
2024/04/15 00:26:12;;;;;;;7.20;6.50;;;;;;;13.15;100.00;98747.35;109412;1253;59925;-74
2024/04/15 00:28:38;;;;;;;8.00;5.90;;;;;;;13.10;100.00;98742.80;109476;1253;59878;-73
2024/04/15 00:31:05;;;;;;;7.80;6.20;;;;;;;13.05;100.00;98738.57;109498;1254;59831;-75
2024/04/15 00:33:32;;;;;;;8.30;6.00;;;;;;;13.02;100.00;98733.48;109436;1253;59961;-73
2024/04/15 00:35:58;;;;;;;7.20;6.00;;;;;;;12.99;100.00;98729.61;109474;1254;60045;-73
2024/04/15 00:38:24;;;;;;;8.30;6.80;;;;;;;12.96;100.00;98729.51;109511;1254;59874;-73
2024/04/15 00:40:51;;;;;;;8.40;5.70;;;;;;;12.93;100.00;98725.14;109472;1254;59969;-73
2024/04/15 00:43:17;;;;;;;8.20;6.30;;;;;;;12.89;100.00;98722.90;109453;1254;59912;-73
2024/04/15 00:45:43;;;;;;;9.70;6.00;;;;;;;12.86;100.00;98724.45;109444;1254;59908;-73
2024/04/15 00:48:17;;;;;;;9.60;6.10;;;;;;;12.82;100.00;98720.83;109434;1256;59879;-73
2024/04/15 00:50:46;;;;;;;9.80;6.60;;;;;;;12.78;100.00;98714.95;109325;1253;59907;-73
2024/04/15 00:53:15;;;;;;;8.50;6.00;;;;;;;12.73;100.00;98708.00;109467;1253;66636;-72
2024/04/15 00:55:46;;;;;;;6.90;5.30;;;;;;;12.65;100.00;98700.80;109496;1253;60185;-73
2024/04/15 00:58:13;;;;;;;8.40;6.10;;;;;;;12.58;100.00;98695.13;109429;1254;63869;-73
2024/04/15 01:00:39;;;;;;;6.70;5.70;;;;;;;12.53;100.00;98689.86;109454;1253;60083;-73
2024/04/15 01:03:07;;;;;;;12.00;7.60;;;;;;;12.48;100.00;98685.09;109488;1253;60024;-72
2024/04/15 01:05:34;;;;;;;9.90;7.20;;;;;;;12.43;100.00;98681.20;109501;1253;68058;-72
2024/04/15 01:08:01;;;;;;;13.70;9.50;;;;;;;12.39;100.00;98676.28;109465;1253;60238;-73
2024/04/15 01:10:28;;;;;;;14.60;9.20;;;;;;;12.37;100.00;98673.30;109461;1253;62434;-73
2024/04/15 01:12:55;;;;;;;15.30;9.30;;;;;;;12.34;100.00;98669.46;109320;1254;60374;-73
2024/04/15 01:15:21;;;;;;;14.60;9.90;;;;;;;12.31;100.00;98666.08;109322;1252;59860;-73
2024/04/15 01:17:47;;;;;;;15.00;10.60;;;;;;;12.29;100.00;98668.37;109485;1254;59987;-73
2024/04/15 01:20:13;;;;;;;18.10;11.00;;;;;;;12.28;100.00;98660.28;109472;1254;59805;-73
2024/04/15 01:22:54;;;;;;;17.50;11.30;;;;;;;12.26;100.00;98660.23;109504;1253;59781;-73
2024/04/15 01:25:20;;;;;;;16.20;10.30;;;;;;;12.25;100.00;98660.73;109436;1252;59882;-73
2024/04/15 01:27:46;;;;;;;19.20;11.60;;;;;;;12.23;100.00;98647.98;109451;1253;59907;-73
2024/04/15 01:30:13;;;;;;;18.20;11.20;;;;;;;12.22;100.00;98641.56;109501;1254;59806;-73
2024/04/15 01:32:39;;;;;;;18.30;11.30;;;;;;;12.19;100.00;98637.87;109488;1253;59857;-73
2024/04/15 01:35:05;;;;;;;14.80;10.50;;;;;;;12.16;100.00;98634.15;109451;1253;59837;-73
2024/04/15 01:37:32;;;;;;;20.40;11.50;;;;;;;12.14;100.00;98632.67;109284;1254;60252;-74
2024/04/15 01:39:58;;;;;;;18.30;11.00;;;;;;;12.13;100.00;98625.67;109507;1253;59752;-73
2024/04/15 01:42:24;;;;;;;16.70;10.30;;;;;;;12.12;100.00;98617.96;109468;1253;59951;-73
2024/04/15 01:44:51;;;;;;;14.40;9.60;;;;;;;12.10;100.00;98605.59;109270;1254;59827;-73
2024/04/15 01:47:17;;;;;;;14.90;10.70;;;;;;;12.10;100.00;98604.52;109432;1252;59850;-73
2024/04/15 01:49:43;;;;;;;13.10;9.80;;;;;;;12.12;100.00;98599.77;109467;1254;59754;-74
2024/04/15 01:52:10;;;;;;;13.70;10.00;;;;;;;12.14;100.00;98598.13;109486;1252;59838;-73
2024/04/15 01:54:36;;;;;;;11.60;9.70;;;;;;;12.16;100.00;98595.50;109466;1254;59761;-73
2024/04/15 01:57:03;;;;;;;10.90;9.50;;;;;;;12.19;100.00;98592.45;109493;1253;59812;-73
2024/04/15 01:59:29;;;;;;;13.50;9.20;;;;;;;12.19;100.00;98579.71;109456;1254;60176;-74
2024/04/15 02:01:55;;;;;;;15.70;9.50;;;;;;;12.22;100.00;98574.52;109443;1252;60233;-72
2024/04/15 02:04:21;;;;;;;12.30;9.50;;;;;;;12.22;100.00;98570.42;109489;1254;59846;-73
2024/04/15 02:06:48;;;;;;;12.80;9.60;;;;;;;12.22;100.00;98565.81;109448;1254;59850;-73
2024/04/15 02:09:14;;;;;;;13.80;9.20;;;;;;;12.23;100.00;98562.01;109465;1253;59952;-73
2024/04/15 02:11:40;;;;;;;11.00;8.80;;;;;;;12.22;100.00;98558.13;109440;1254;60307;-73
2024/04/15 02:14:07;;;;;;;12.60;10.40;;;;;;;12.22;100.00;98557.93;109284;1254;59866;-73
2024/04/15 02:16:33;;;;;;;10.70;9.00;;;;;;;12.23;100.00;98558.08;109463;1253;60008;-73
2024/04/15 02:18:59;;;;;;;12.50;8.80;;;;;;;12.23;100.00;98551.12;109489;1253;59724;-73
2024/04/15 02:21:26;;;;;;;14.10;10.20;;;;;;;12.22;100.00;98547.33;109293;1254;60019;-73
2024/04/15 02:23:52;;;;;;;10.20;8.20;;;;;;;12.21;100.00;98539.57;109444;1254;60144;-73
2024/04/15 02:26:18;;;;;;;11.90;7.90;;;;;;;12.20;100.00;98531.48;109507;1254;59714;-73
2024/04/15 02:28:45;;;;;;;10.90;8.20;;;;;;;12.19;100.00;98524.59;109419;1253;66809;-74
2024/04/15 02:31:11;;;;;;;10.20;7.50;;;;;;;12.17;100.00;98516.55;109437;1252;59852;-74
2024/04/15 02:33:37;;;;;;;10.20;6.90;;;;;;;12.16;100.00;98512.13;109467;1253;60084;-73
2024/04/15 02:36:04;;;;;;;9.70;8.30;;;;;;;12.17;100.00;98504.30;109175;1254;60114;-74
2024/04/15 02:38:30;;;;;;;9.40;7.30;;;;;;;12.16;100.00;98497.06;109494;1253;59802;-73
2024/04/15 02:40:57;;;;;;;9.60;7.20;;;;;;;12.16;100.00;98493.52;109448;1255;59895;-73
2024/04/15 02:43:23;;;;;;;9.00;6.80;;;;;;;12.16;100.00;98492.38;109469;1254;59872;-73
2024/04/15 02:45:50;;;;;;;8.40;7.10;;;;;;;12.17;100.00;98487.17;109418;1254;59877;-73
2024/04/15 02:48:16;;;;;;;9.20;7.00;;;;;;;12.19;100.00;98481.29;109469;1254;59813;-73
2024/04/15 02:50:43;;;;;;;9.90;7.30;;;;;;;12.20;100.00;98481.38;109470;1254;59848;-74
2024/04/15 02:53:09;;;;;;;11.70;7.90;;;;;;;12.21;100.00;98477.39;109490;1254;60014;-73
2024/04/15 02:55:35;;;;;;;11.30;7.70;;;;;;;12.22;100.00;98467.70;109444;1256;59833;-73
2024/04/15 02:58:02;;;;;;;12.20;7.40;;;;;;;12.22;100.00;98453.40;109448;1252;59850;-73
2024/04/15 03:00:28;;;;;;;11.60;8.60;;;;;;;12.22;100.00;98451.47;109444;1255;59813;-73
2024/04/15 03:02:54;;;;;;;13.70;10.00;;;;;;;12.21;100.00;98449.05;109444;1253;60315;-73
2024/04/15 03:05:21;;;;;;;9.60;8.10;;;;;;;12.18;100.00;98442.36;109421;1256;59807;-71
2024/04/15 03:07:47;;;;;;;12.40;8.80;;;;;;;12.15;100.00;98440.09;109517;1254;59768;-73
2024/04/15 03:10:14;;;;;;;10.40;9.40;;;;;;;12.14;100.00;98441.82;109428;1254;59858;-72
2024/04/15 03:12:40;;;;;;;12.80;10.00;;;;;;;12.13;100.00;98435.90;109308;1253;60291;-74
2024/04/15 03:15:07;;;;;;;12.20;10.00;;;;;;;12.12;100.00;98424.02;109491;1254;60193;-74
2024/04/15 03:17:33;;;;;;;12.00;9.70;;;;;;;12.10;100.00;98415.94;109354;1253;59926;-73
2024/04/15 03:19:59;;;;;;;13.80;10.30;;;;;;;12.10;100.00;98403.16;109458;1256;59912;-73
2024/04/15 03:22:26;;;;;;;14.70;10.90;;;;;;;12.07;100.00;98398.23;109450;1254;60255;-73
2024/04/15 03:24:52;;;;;;;13.10;10.50;;;;;;;12.04;100.00;98398.61;109471;1253;59848;-73
2024/04/15 03:27:19;;;;;;;12.90;11.50;;;;;;;12.00;100.00;98384.92;109430;1253;60181;-73
2024/04/15 03:29:45;;;;;;;12.70;10.90;;;;;;;11.93;100.00;98377.61;109455;1254;59920;-74
2024/04/15 03:32:11;;;;;;;12.50;10.40;;;;;;;11.89;100.00;98378.02;109513;1254;59882;-73
2024/04/15 03:34:38;;;;;;;10.80;9.60;;;;;;;11.82;100.00;98372.95;109465;1253;59746;-73
2024/04/15 03:37:04;;;;;;;12.00;9.80;;;;;;;11.80;100.00;98374.59;109482;1253;59766;-73
2024/04/15 03:39:30;;;;;;;11.60;8.90;;;;;;;11.77;100.00;98373.55;109495;1252;59806;-73
2024/04/15 03:41:57;;;;;;;11.90;9.30;;;;;;;11.76;100.00;98372.64;109521;1254;59806;-72
2024/04/15 03:44:23;;;;;;;12.30;10.90;;;;;;;11.75;100.00;98362.94;109462;1254;59855;-73
2024/04/15 03:46:51;;;;;;;11.70;7.90;;;;;;;11.74;100.00;98355.31;109483;1254;59773;-73
2024/04/15 03:49:17;;;;;;;10.80;8.40;;;;;;;11.74;100.00;98356.23;109326;1254;60040;-73
2024/04/15 03:51:43;;;;;;;9.60;7.90;;;;;;;11.73;100.00;98355.39;109475;1253;59897;-73
2024/04/15 03:54:09;;;;;;;11.70;8.10;;;;;;;11.73;100.00;98344.91;109523;1254;59807;-72
2024/04/15 03:56:36;;;;;;;11.40;8.00;;;;;;;11.71;100.00;98334.88;109439;1256;59865;-74
2024/04/15 03:59:02;;;;;;;11.20;8.10;;;;;;;11.71;100.00;98326.21;109493;1254;59772;-73
2024/04/15 04:01:29;;;;;;;9.80;7.40;;;;;;;11.71;100.00;98316.80;109490;1254;59760;-73
2024/04/15 04:03:55;;;;;;;11.30;8.50;;;;;;;11.71;100.00;98314.63;109497;1253;59824;-73
2024/04/15 04:06:21;;;;;;;10.20;8.00;;;;;;;11.73;100.00;98314.53;109451;1254;59956;-73
2024/04/15 04:08:48;;;;;;;11.70;7.50;;;;;;;11.74;100.00;98308.02;109312;1254;60184;-73
2024/04/15 04:11:14;;;;;;;13.00;7.90;;;;;;;11.75;100.00;98306.63;109481;1252;60156;-73
2024/04/15 04:13:41;;;;;;;11.30;7.20;;;;;;;11.76;100.00;98302.98;109446;1253;59874;-73
2024/04/15 04:16:12;;;;;;;13.20;9.20;;;;;;;11.80;100.00;98303.61;109471;1254;59853;-73
2024/04/15 04:18:38;;;;;;;12.20;9.30;;;;;;;11.82;100.00;98320.16;109427;1254;65669;-74
2024/04/15 04:21:11;;;;;;;14.20;9.60;;;;;;;11.83;100.00;98346.17;109457;1254;59860;-74
2024/04/15 04:23:38;;;;;;;13.60;9.10;;;;;;;11.85;100.00;98354.56;109454;1252;73694;-73
2024/04/15 04:26:05;;;;;;;13.60;8.70;;;;;;;11.88;100.00;98343.00;109428;1254;59864;-73
2024/04/15 04:28:31;;;;;;;14.90;9.90;;;;;;;11.90;100.00;98319.15;109303;1254;59933;-73
2024/04/15 04:31:04;;;;;;;11.60;9.10;;;;;;;11.92;100.00;98302.46;109478;1254;66747;-73
2024/04/15 04:33:32;;;;;;;12.40;10.00;;;;;;;11.91;100.00;98291.70;109442;1256;60186;-73
2024/04/15 04:35:59;;;;;;;16.70;9.20;;;;;;;11.85;100.00;98301.55;109463;1254;64101;-72
2024/04/15 04:38:27;;;;;;;11.30;8.80;;;;;;;11.78;100.00;98306.39;109477;1252;59752;-72
2024/04/15 04:40:57;;;;;;;12.90;8.50;;;;;;;11.73;100.00;98322.48;109471;1254;59942;-72
2024/04/15 04:43:24;;;;;;;16.10;8.60;;;;;;;11.68;100.00;98328.61;109442;1254;65362;-72
2024/04/15 04:45:52;;;;;;;14.50;8.60;;;;;;;11.63;100.00;98335.70;109525;1253;59857;-72
2024/04/15 04:48:19;;;;;;;12.40;7.70;;;;;;;11.62;100.00;98331.90;109447;1252;62738;-72
2024/04/15 04:50:46;;;;;;;11.70;7.70;;;;;;;11.61;100.00;98339.67;109442;1253;59851;-71
2024/04/15 04:53:13;;;;;;;13.40;7.20;;;;;;;11.60;100.00;98354.33;109522;1253;59915;-72
2024/04/15 04:55:39;;;;;;;12.70;7.80;;;;;;;11.59;100.00;98352.27;109494;1253;65857;-72
2024/04/15 04:58:06;;;;;;;16.40;8.50;;;;;;;11.59;100.00;98349.45;109479;1254;59726;-72
2024/04/15 05:00:32;;;;;;;13.70;8.30;;;;;;;11.59;100.00;98354.60;109460;1252;64100;-72
2024/04/15 05:02:59;;;;;;;9.80;8.30;;;;;;;11.58;100.00;98352.84;109297;1252;60233;-73
2024/04/15 05:05:25;;;;;;;12.30;8.60;;;;;;;11.56;100.00;98360.69;109499;1254;61269;-73
2024/04/15 05:07:52;;;;;;;13.90;8.90;;;;;;;11.55;100.00;98361.71;109463;1254;59801;-72
2024/04/15 05:10:18;;;;;;;16.40;9.10;;;;;;;11.53;100.00;98346.34;109453;1252;60078;-73
2024/04/15 05:12:44;;;;;;;15.40;8.20;;;;;;;11.52;100.00;98335.05;109432;1253;59932;-72
2024/04/15 05:15:11;;;;;;;13.70;8.50;;;;;;;11.52;100.00;98342.87;109453;1253;59810;-72
2024/04/15 05:17:39;;;;;;;10.80;8.30;;;;;;;11.54;100.00;98353.25;109450;1253;59903;-73
2024/04/15 05:20:07;;;;;;;11.90;8.10;;;;;;;11.54;100.00;98351.06;109469;1253;66987;-72
2024/04/15 05:22:33;;;;;;;12.10;8.10;;;;;;;11.54;100.00;98342.89;109504;1254;61064;-73
2024/04/15 05:24:59;;;;;;;11.50;7.30;;;;;;;11.54;100.00;98333.63;109463;1253;59864;-72
2024/04/15 05:27:26;;;;;;;11.20;7.50;;;;;;;11.55;100.00;98338.70;109429;1254;59792;-72
2024/04/15 05:29:52;;;;;;;9.60;7.30;;;;;;;11.56;100.00;98338.14;109466;1252;59942;-72
2024/04/15 05:32:19;;;;;;;9.70;7.00;;;;;;;11.55;100.00;98329.78;109461;1252;59831;-73
2024/04/15 05:34:45;;;;;;;11.60;7.50;;;;;;;11.56;100.00;98315.39;109440;1253;60085;-73
2024/04/15 05:37:11;;;;;;;11.60;7.50;;;;;;;11.53;100.00;98293.54;109462;1253;59807;-73
2024/04/15 05:39:38;;;;;;;10.90;7.70;;;;;;;11.53;100.00;98321.67;109415;1254;59819;-72
2024/04/15 05:42:04;;;;;;;10.80;8.20;;;;;;;11.52;100.00;98337.25;109469;1254;60083;-73
2024/04/15 05:44:31;;;;;;;9.50;8.00;;;;;;;11.53;100.00;98333.08;109169;1254;60203;-72
2024/04/15 05:46:57;;;;;;;11.70;8.20;;;;;;;11.55;100.00;98326.66;109526;1253;59766;-73
2024/04/15 05:49:24;;;;;;;12.10;8.60;;;;;;;11.56;100.00;98328.70;109476;1253;59890;-73
2024/04/15 05:51:50;;;;;;;12.90;8.80;;;;;;;11.58;100.00;98341.69;109490;1253;59815;-73
2024/04/15 05:54:16;;;;;;;11.70;9.20;;;;;;;11.58;100.00;98341.85;109467;1253;59753;-73
2024/04/15 05:56:43;;;;;;;13.70;10.90;;;;;;;11.59;100.00;98337.46;109497;1253;59818;-72
2024/04/15 05:59:09;;;;;;;12.60;9.90;;;;;;;11.61;100.00;98318.30;109490;1254;60122;-72
2024/04/15 06:01:35;;;;;;;14.80;9.50;;;;;;;11.62;100.00;98321.92;109502;1253;59839;-73
2024/04/15 06:04:01;;;;;;;12.70;11.50;;;;;;;11.64;100.00;98328.58;109507;1253;60121;-73
2024/04/15 06:06:28;;;;;;;11.90;9.30;;;;;;;11.67;100.00;98326.02;109473;1253;60189;-73
2024/04/15 06:08:54;;;;;;;11.80;8.80;;;;;;;11.68;100.00;98322.16;109478;1254;59830;-73
2024/04/15 06:11:21;;;;;;;12.00;9.00;;;;;;;11.73;100.00;98319.29;109538;1253;59807;-73
2024/04/15 06:13:47;;;;;;;11.90;9.20;;;;;;;11.78;100.00;98316.72;109449;1253;59808;-73
2024/04/15 06:16:13;;;;;;;13.00;9.20;;;;;;;11.86;100.00;98312.87;109464;1253;59870;-73
2024/04/15 06:18:40;;;;;;;12.00;8.10;;;;;;;11.93;100.00;98322.09;109552;1253;59829;-73
2024/04/15 06:21:06;;;;;;;12.30;9.70;;;;;;;11.97;100.00;98322.11;109186;1253;59924;-72
2024/04/15 06:23:32;;;;;;;13.70;9.30;;;;;;;12.00;100.00;98312.94;109508;1253;59921;-72
2024/04/15 06:25:58;;;;;;;13.20;9.30;;;;;;;11.98;100.00;98303.89;109471;1253;60117;-72
2024/04/15 06:28:25;;;;;;;14.50;9.70;;;;;;;11.98;100.00;98303.39;109497;1253;59861;-72
2024/04/15 06:30:51;;;;;;;10.60;8.80;;;;;;;11.93;100.00;98308.24;109494;1253;59875;-73
2024/04/15 06:33:18;;;;;;;12.10;9.60;;;;;;;11.90;100.00;98314.91;109522;1254;66073;-76
2024/04/15 06:35:45;;;;;;;14.80;9.70;;;;;;;11.89;100.00;98326.34;109315;1253;59977;-72
2024/04/15 06:38:13;;;;;;;12.50;10.70;;;;;;;11.85;100.00;98343.59;109415;1252;60241;-73
2024/04/15 06:40:40;;;;;;;13.70;10.20;;;;;;;11.79;100.00;98346.70;109478;1252;59782;-72
2024/04/15 06:43:06;;;;;;;14.40;11.50;;;;;;;11.71;100.00;98346.90;109464;1253;66729;-78
2024/04/15 06:45:33;;;;;;;11.60;10.10;;;;;;;11.57;100.00;98358.83;109510;1251;60167;-76
2024/04/15 06:47:59;;;;;;;13.70;9.50;;;;;;;11.44;100.00;98355.27;109410;1251;60089;-76
2024/04/15 06:50:26;;;;;;;13.00;8.20;;;;;;;11.34;100.00;98342.05;109363;1252;59798;-73
2024/04/15 06:52:53;;;;;;;11.70;8.30;;;;;;;11.26;100.00;98335.23;109408;1253;59782;-74
2024/04/15 06:55:19;;;;;;;13.80;9.80;;;;;;;11.20;100.00;98326.23;109437;1256;66922;-75
2024/04/15 06:57:46;;;;;;;12.10;10.80;;;;;;;11.20;100.00;98307.80;109451;1252;59767;-74
2024/04/15 07:00:12;;;;;;;12.70;11.20;;;;;;;11.21;100.00;98300.36;109484;1251;60705;-74
2024/04/15 07:02:39;;;;;;;12.90;11.10;;;;;;;11.27;100.00;98306.13;109519;1251;59779;-74
2024/04/15 07:05:05;;;;;;;12.10;10.90;;;;;;;11.36;100.00;98313.23;109490;1251;59897;-74
2024/04/15 07:07:32;;;;;;;13.80;10.50;;;;;;;11.46;100.00;98303.53;109446;1251;59977;-80
2024/04/15 07:09:58;;;;;;;11.00;9.20;;;;;;;11.59;100.00;98292.09;109463;1252;59798;-79
2024/04/15 07:12:25;;;;;;;11.70;10.20;;;;;;;11.67;100.00;98300.34;109475;1252;59848;-80
2024/04/15 07:14:51;;;;;;;13.40;10.80;;;;;;;11.62;100.00;98308.80;109447;1253;59899;-80
2024/04/15 07:17:17;;;;;;;12.10;10.40;;;;;;;11.56;100.00;98308.39;109506;1253;59788;-79
2024/04/15 07:19:44;;;;;;;13.70;10.20;;;;;;;11.51;100.00;98303.31;109473;1252;59911;-79
2024/04/15 07:22:11;;;;;;;11.80;10.10;;;;;;;11.49;100.00;98289.72;109192;1254;59798;-79
2024/04/15 07:24:38;;;;;;;10.10;9.10;;;;;;;11.52;100.00;98287.73;109468;1252;64080;-81
2024/04/15 07:27:04;;;;;;;10.80;9.60;;;;;;;11.52;100.00;98303.70;109324;1253;59815;-77
2024/04/15 07:29:30;;;;;;;12.50;10.20;;;;;;;11.47;100.00;98309.83;109531;1253;60081;-81
2024/04/15 07:31:57;;;;;;;13.30;10.40;;;;;;;11.48;100.00;98298.96;109492;1252;59776;-78
2024/04/15 07:34:23;;;;;;;14.60;11.50;;;;;;;11.56;100.00;98292.23;109504;1252;59839;-79
2024/04/15 07:36:49;;;;;;;16.40;9.40;;;;;;;11.67;100.00;98286.84;109473;1252;59846;-79
2024/04/15 07:39:16;;;;;;;13.60;10.90;;;;;;;11.72;100.00;98287.05;109167;1256;60210;-80
2024/04/15 07:41:42;;;;;;;13.00;11.00;;;;;;;11.73;100.00;98284.96;109508;1252;59777;-76
2024/04/15 07:44:08;;;;;;;12.80;10.10;;;;;;;11.76;100.00;98278.48;109576;1253;60117;-81
2024/04/15 07:46:35;;;;;;;13.00;9.80;;;;;;;11.78;100.00;98279.37;109448;1253;59949;-79
2024/04/15 07:49:01;;;;;;;13.00;11.30;;;;;;;11.77;100.00;98289.05;109421;1252;59902;-79
2024/04/15 07:51:27;;;;;;;12.00;10.80;;;;;;;11.77;100.00;98296.91;109531;1253;59710;-79
2024/04/15 07:53:54;;;;;;;12.20;11.00;;;;;;;11.79;100.00;98295.10;109475;1254;59876;-80
2024/04/15 07:56:21;;;;;;;14.50;10.70;;;;;;;11.81;100.00;98303.11;109487;1253;59743;-80
2024/04/15 07:58:47;;;;;;;13.70;11.00;;;;;;;11.83;100.00;98306.52;109489;1253;59748;-80
2024/04/15 08:01:13;;;;;;;12.40;11.10;;;;;;;11.84;100.00;98307.01;109481;1253;60107;-80
2024/04/15 08:03:40;;;;;;;14.60;11.90;;;;;;;11.84;100.00;98322.80;109439;1252;60100;-79
2024/04/15 08:06:06;;;;;;;18.10;14.20;;;;;;;11.78;100.00;98335.59;109528;1252;59808;-77
2024/04/15 08:08:33;;;;;;;14.80;13.30;;;;;;;11.70;100.00;98326.45;109490;1253;59759;-76
2024/04/15 08:10:59;;;;;;;16.90;14.50;;;;;;;11.57;100.00;98320.23;109409;1253;59862;-75
2024/04/15 08:13:26;;;;;;;14.50;10.40;;;;;;;11.48;100.00;98324.38;109464;1253;60041;-78
2024/04/15 08:15:53;;;;;;;15.70;12.80;;;;;;;11.48;100.00;98294.65;109488;1252;59774;-79
2024/04/15 08:18:19;;;;;;;13.90;11.50;;;;;;;11.63;100.00;98259.58;109475;1253;59859;-78
2024/04/15 08:20:58;;;;;;;11.50;10.10;;;;;;;11.78;100.00;98271.94;109471;1252;59847;-78
2024/04/15 08:23:24;;;;;;;13.80;11.20;;;;;;;11.96;100.00;98276.64;109462;1252;59801;-78
2024/04/15 08:25:55;;;;;;;9.80;8.00;;;;;;;12.24;100.00;98275.69;109293;1252;158844;-79
2024/04/15 08:28:23;;;;;;;8.80;7.50;;;;;;;12.42;100.00;98282.91;109478;1252;59792;-79
2024/04/15 08:30:50;;;;;;;10.30;7.20;;;;;;;12.45;100.00;98294.20;109448;1253;59905;-79
2024/04/15 08:33:16;;;;;;;10.20;9.00;;;;;;;12.47;100.00;98300.66;109464;1253;66674;-78
2024/04/15 08:35:43;;;;;;;24.80;7.70;;;;;;;12.49;100.00;98302.19;109502;1252;61381;-80
2024/04/15 08:38:09;;;;;;;12.50;8.00;;;;;;;12.50;100.00;98293.98;109456;1252;59882;-79
2024/04/15 08:40:35;;;;;;;11.00;7.60;;;;;;;12.50;100.00;98279.66;109449;1254;59846;-80
2024/04/15 08:43:03;;;;;;;9.30;7.90;;;;;;;12.56;100.00;98281.13;109487;1253;59851;-78
2024/04/15 08:45:31;;;;;;;8.40;7.30;;;;;;;12.61;100.00;98289.43;109503;1253;65580;-80
2024/04/15 08:47:58;;;;;;;9.50;8.40;;;;;;;12.63;100.00;98297.60;109493;1253;60008;-80
2024/04/15 08:50:26;;;;;;;10.50;8.70;;;;;;;12.62;100.00;98299.48;109463;1252;62627;-80
2024/04/15 08:52:56;;;;;;;10.60;9.50;;;;;;;12.55;100.00;98290.55;109444;1252;59807;-80
2024/04/15 08:55:23;;;;;;;;;;;;;;;12.48;100.00;98278.64;109526;1253;59789;-80
2024/04/15 08:57:51;;;;;;;12.00;7.40;;;;;;;12.46;100.00;98272.22;109524;1252;66577;-79
2024/04/15 09:00:20;;;;;;;8.60;7.50;;;;;;;12.47;100.00;98271.23;109452;1253;60051;-80
2024/04/15 09:02:49;;;;;;;8.30;7.30;;;;;;;12.46;100.00;98276.80;109453;1254;64938;-80
2024/04/15 09:05:17;;;;;;;8.90;7.80;;;;;;;12.43;100.00;98291.55;109449;1254;59876;-80
2024/04/15 09:07:46;;;;;;;9.60;8.50;;;;;;;12.35;100.00;98307.92;109476;1252;59933;-78
2024/04/15 09:10:13;;;;;;;10.60;9.00;;;;;;;12.28;100.00;98326.47;109493;1253;65521;-79
2024/04/15 09:12:44;;;;;;;9.60;8.60;;;;;;;12.23;100.00;98330.66;109465;1254;59863;-80
2024/04/15 09:15:12;;;;;;;10.20;8.60;;;;;;;12.14;100.00;98338.86;109471;1253;64146;-80
2024/04/15 09:17:39;;;;;;;9.90;8.90;;;;;;;12.02;100.00;98339.55;109216;1253;59881;-77
2024/04/15 09:20:07;;;;;;;9.60;8.40;;;;;;;11.93;100.00;98335.13;109448;1253;60114;-80
2024/04/15 09:22:35;;;;;;;12.60;9.40;;;;;;;11.85;100.00;98332.02;109496;1252;66817;-80
2024/04/15 09:25:02;;;;;;;11.50;9.00;;;;;;;11.84;100.00;98331.89;109463;1252;59796;-79
2024/04/15 09:27:28;;;;;;;9.70;8.50;;;;;;;11.81;100.00;98335.36;109494;1252;62815;-78
2024/04/15 09:29:57;;;;;;;10.00;8.80;;;;;;;11.73;100.00;98328.38;109455;1253;60191;-79
2024/04/15 09:32:23;;;;;;;10.10;8.20;;;;;;;11.72;100.00;98321.46;109507;1252;59780;-79
2024/04/15 09:35:05;;;;;;;10.80;8.30;;;;;;;11.69;100.00;98337.45;109202;1253;60347;-80
2024/04/15 09:37:36;;;;;;;11.90;8.50;;;;;;;11.58;100.00;98341.52;109462;1253;59974;-80
2024/04/15 09:40:04;;;;;;;10.80;8.10;;;;;;;11.43;100.00;98325.45;109495;1253;63822;-80
2024/04/15 09:42:31;;;;;;;15.10;7.50;;;;;;;11.30;100.00;98324.17;109503;1252;59778;-79
2024/04/15 09:44:58;;;;;;;10.50;7.40;;;;;;;11.19;100.00;98325.80;109474;1253;59793;-80
2024/04/15 09:47:25;;;;;;;10.10;7.50;;;;;;;11.08;100.00;98331.16;109311;1252;66710;-79
2024/04/15 09:49:52;;;;;;;11.70;6.60;;;;;;;11.04;100.00;98332.30;109207;1252;60971;-77
2024/04/15 09:52:22;;;;;;;8.30;5.60;;;;;;;11.05;100.00;98327.44;109483;1253;59950;-80
2024/04/15 09:54:55;;;;;;;;;;;;;;;11.04;100.00;98319.91;109529;1253;59959;-79
2024/04/15 09:57:26;;;;;;;10.30;7.00;;;;;;;10.94;100.00;98319.05;109526;1252;60266;-78
2024/04/15 09:59:57;;;;;;;9.20;5.60;;;;;;;10.89;100.00;98312.17;109484;1252;67750;-79
2024/04/15 10:02:33;;;;;;;13.40;6.90;;;;;;;10.98;100.00;98302.58;109440;1253;61428;-82
2024/04/15 10:05:14;;;;;;;7.10;6.20;;;;;;;11.06;100.00;98297.52;109501;1252;62819;-73
2024/04/15 10:07:45;;;;;;;8.20;5.50;;;;;;;11.04;100.00;98298.76;109515;1252;59758;-72
2024/04/15 10:10:11;;;;;;;8.00;4.30;;;;;;;10.98;100.00;98295.27;109508;1253;59932;-72
2024/04/15 10:12:38;;;;;;;6.10;3.80;;;;;;;10.97;100.00;98287.92;109328;1252;59807;-72
2024/04/15 10:15:05;;;;;;;7.10;4.60;;;;;;;10.94;100.00;98298.28;109493;1253;60900;-73
2024/04/15 10:17:31;;;;;;;10.80;6.20;;;;;;;10.88;100.00;98306.63;109459;1253;64366;-74
2024/04/15 10:20:10;;;;;;;6.60;5.50;;;;;;;10.84;100.00;98323.09;109510;1254;59781;-73
2024/04/15 10:22:38;;;;;;;8.00;5.40;;;;;;;10.82;100.00;98323.98;109311;1252;60188;-74
2024/04/15 10:25:07;;;;;;;7.90;4.60;;;;;;;10.80;100.00;98324.25;109458;1253;68108;-74
2024/04/15 10:27:34;;;;;;;10.10;5.20;;;;;;;10.77;100.00;98316.89;109466;1253;59906;-73
2024/04/15 10:30:11;;;;;;;7.70;4.80;;;;;;;10.74;100.00;98310.50;109460;1252;59812;-73
2024/04/15 10:32:43;;;;;;;7.20;4.30;;;;;;;10.77;100.00;98309.77;109465;1253;59853;-74
2024/04/15 10:35:22;;;;;;;6.10;4.30;;;;;;;10.84;100.00;98312.05;109511;1253;59813;-73
2024/04/15 10:37:53;;;;;;;6.60;4.40;;;;;;;10.96;100.00;98304.65;109465;1253;65480;-74
2024/04/15 10:40:20;;;;;;;7.90;4.90;;;;;;;11.10;100.00;98302.52;109520;1253;60269;-73
2024/04/15 10:42:46;;;;;;;6.70;3.90;;;;;;;11.21;100.00;98296.84;109489;1253;65312;-73
2024/04/15 10:45:17;;;;;;;7.10;4.60;;;;;;;11.28;100.00;98299.81;109480;1253;59786;-73
2024/04/15 10:47:46;;;;;;;7.00;3.70;;;;;;;11.31;100.00;98295.30;109497;1252;59689;-73
2024/04/15 10:50:12;;;;;;;5.40;3.30;;;;;;;11.35;100.00;98286.41;109488;1253;66861;-73
2024/04/15 10:52:39;;;;;;;5.30;3.40;;;;;;;11.35;100.00;98280.58;109490;1253;60286;-73
2024/04/15 10:55:07;;;;;;;9.60;4.40;;;;;;;11.31;100.00;98281.45;109458;1253;59837;-73
2024/04/15 10:57:33;;;;;;;5.00;4.10;;;;;;;11.30;100.00;98284.59;109482;1253;59859;-73
2024/04/15 10:59:59;;;;;;;6.90;3.60;;;;;;;11.36;100.00;98289.06;109514;1252;59817;-73
2024/04/15 11:02:26;;;;;;;5.80;4.00;;;;;;;11.41;100.00;98282.25;109496;1253;60043;-74
2024/04/15 11:04:52;;;;;;;8.00;5.00;;;;;;;11.41;100.00;98275.77;109428;1253;59909;-73
2024/04/15 11:07:19;;;;;;;9.90;5.60;;;;;;;11.48;100.00;98261.73;109511;1252;59755;-74
2024/04/15 11:09:46;;;;;;;8.00;5.20;;;;;;;11.59;100.00;98256.23;109438;1253;59742;-73